Terminal Aerodrome Forecast
Issued by NWS

Home | Current Version | Previous Version | Text Only | Print | Product List | Glossary Off
Versions: 1 2 3 4 5 6 7 8 9 10 11 12 13 14 15 16 17 18 19 20 21 22 23 24 25 26

000
FTUS43 KGRB 020500
TAFRHI
TAF
KRHI 020520Z 0206/0306 25004KT P6SM BKN060
     FM021000 21004KT P6SM SCT250
     FM021600 24009KT P6SM SCT060
     FM030100 20004KT P6SM SCT060=

USA.gov is the U.S. government's official web portal to all federal, state and local government web resources and services.